Time;durP1;ratioP1;P1;durP2;ratioP2;P2;SDS_P1;SDS_P2;PMS_P1;PMS_P2;Temp;Humidity;BMP_temperature;BMP_pressure;BME280_temperature;BME280_humidity;BME280_pressure;Samples;Min_cycle;Max_cycle;Signal;HPM_P1;HPM_P2
2023/04/03 00:01:38;;;;;;;5.75;1.42;;;2.00;99.90;;;;;;5088574;28;20075;-66
2023/04/03 00:04:05;;;;;;;5.07;1.17;;;2.00;99.90;;;;;;5081529;28;20406;-65
2023/04/03 00:06:31;;;;;;;4.15;1.23;;;1.90;99.90;;;;;;5064624;28;20128;-67
2023/04/03 00:08:57;;;;;;;4.53;1.13;;;1.90;99.90;;;;;;5048272;28;20040;-65
2023/04/03 00:11:22;;;;;;;4.15;1.27;;;1.90;99.90;;;;;;5065886;28;20089;-65
2023/04/03 00:13:48;;;;;;;8.57;1.40;;;1.90;99.90;;;;;;5065135;28;20115;-66
2023/04/03 00:16:14;;;;;;;4.93;1.58;;;1.90;99.90;;;;;;5064473;28;20467;-65
2023/04/03 00:18:40;;;;;;;6.45;1.35;;;1.90;99.90;;;;;;5064657;28;20062;-66
2023/04/03 00:21:07;;;;;;;4.88;1.33;;;1.80;99.90;;;;;;5064307;28;20045;-65
2023/04/03 00:23:33;;;;;;;4.43;1.00;;;1.80;99.90;;;;;;5048217;28;20446;-66
2023/04/03 00:25:59;;;;;;;5.22;1.20;;;1.80;99.90;;;;;;5047912;28;20037;-65
2023/04/03 00:28:25;;;;;;;4.78;1.42;;;1.80;99.90;;;;;;5064548;28;20126;-65
2023/04/03 00:30:51;;;;;;;8.55;1.48;;;1.70;99.90;;;;;;5047637;28;20040;-64
2023/04/03 00:33:17;;;;;;;7.78;1.80;;;1.70;99.90;;;;;;5084596;28;20054;-65
2023/04/03 00:35:42;;;;;;;7.05;2.00;;;1.60;99.90;;;;;;5049615;28;20044;-65
2023/04/03 00:38:09;;;;;;;4.28;1.33;;;1.60;99.90;;;;;;5048001;28;20046;-64
2023/04/03 00:40:38;;;;;;;6.63;1.35;;;1.50;99.90;;;;;;5047625;28;20072;-64
2023/04/03 00:43:21;;;;;;;5.40;1.67;;;1.50;99.90;;;;;;5047583;28;20041;-64
2023/04/03 00:45:49;;;;;;;5.28;1.40;;;1.50;99.90;;;;;;5047240;28;20364;-65
2023/04/03 00:48:42;;;;;;;5.85;1.40;;;1.40;99.90;;;;;;5064750;28;20098;-65
2023/04/03 00:51:13;;;;;;;5.72;1.40;;;1.40;99.90;;;;;;5045183;28;20060;-65
2023/04/03 00:53:52;;;;;;;7.28;2.03;;;1.40;99.90;;;;;;5047611;28;20056;-65
2023/04/03 00:56:21;;;;;;;7.05;1.60;;;1.30;99.90;;;;;;5031766;28;20055;-65
2023/04/03 00:58:53;;;;;;;8.73;1.45;;;1.30;99.90;;;;;;5063835;28;20053;-64
2023/04/03 01:01:23;;;;;;;6.38;1.63;;;1.20;99.90;;;;;;5064024;28;20565;-64
2023/04/03 01:03:50;;;;;;;6.70;1.73;;;1.20;99.90;;;;;;5047177;28;20373;-66
2023/04/03 01:06:19;;;;;;;8.00;1.77;;;1.20;99.90;;;;;;5063953;28;20040;-66
2023/04/03 01:08:47;;;;;;;5.25;1.50;;;1.10;99.90;;;;;;5065602;28;20496;-65
2023/04/03 01:11:13;;;;;;;6.63;1.50;;;1.10;99.90;;;;;;5063788;28;20036;-65
2023/04/03 01:13:40;;;;;;;6.53;1.70;;;1.10;99.90;;;;;;5063799;28;20043;-65
2023/04/03 01:16:06;;;;;;;8.20;1.90;;;1.10;99.90;;;;;;5047358;28;20540;-65
2023/04/03 01:18:34;;;;;;;6.25;1.60;;;1.00;99.90;;;;;;5047476;28;20129;-64
2023/04/03 01:21:40;;;;;;;10.38;2.42;;;1.00;99.90;;;;;;5046776;28;20080;-65
2023/04/03 01:24:38;;;;;;;5.72;1.58;;;1.00;99.90;;;;;;5063992;28;20040;-65
2023/04/03 01:27:06;;;;;;;8.38;1.67;;;0.90;99.90;;;;;;5063627;28;20123;-66
2023/04/03 01:29:32;;;;;;;7.47;1.85;;;0.90;99.90;;;;;;5063685;28;20044;-64
2023/04/03 01:32:00;;;;;;;9.85;1.70;;;0.90;99.90;;;;;;5063576;28;20041;-65
2023/04/03 01:34:28;;;;;;;9.95;1.98;;;0.90;99.90;;;;;;5046703;28;20063;-65
2023/04/03 01:36:54;;;;;;;7.25;2.20;;;0.80;99.90;;;;;;5064765;28;20040;-65
2023/04/03 01:39:21;;;;;;;7.55;1.90;;;0.80;99.90;;;;;;5080310;28;20079;-65
2023/04/03 01:41:47;;;;;;;9.25;1.77;;;0.80;99.90;;;;;;5063146;28;20035;-65
2023/04/03 01:44:14;;;;;;;8.38;1.70;;;0.80;99.90;;;;;;5081981;28;20396;-65
2023/04/03 01:46:41;;;;;;;6.75;1.92;;;0.70;99.90;;;;;;5076123;28;20451;-64
2023/04/03 01:49:07;;;;;;;9.88;1.98;;;0.70;99.90;;;;;;5046825;28;20047;-65
2023/04/03 01:51:33;;;;;;;5.82;2.10;;;0.60;99.90;;;;;;5046626;28;20044;-65
2023/04/03 01:53:59;;;;;;;10.52;2.20;;;0.60;99.90;;;;;;5047075;28;20076;-66
2023/04/03 01:56:24;;;;;;;7.07;2.13;;;0.60;99.90;;;;;;5063460;28;20083;-65
2023/04/03 01:58:50;;;;;;;8.00;1.88;;;0.50;99.90;;;;;;5063777;28;20100;-65
2023/04/03 02:01:16;;;;;;;7.43;1.92;;;0.50;99.90;;;;;;5063140;28;20237;-65
2023/04/03 02:03:42;;;;;;;8.57;2.20;;;0.50;99.90;;;;;;5046974;28;20033;-65
2023/04/03 02:06:08;;;;;;;10.40;2.15;;;0.40;99.90;;;;;;5064633;28;20044;-65
2023/04/03 02:08:34;;;;;;;6.72;1.88;;;0.40;99.90;;;;;;5068685;28;20487;-65
2023/04/03 02:11:00;;;;;;;5.28;1.90;;;0.40;99.90;;;;;;5050077;28;20076;-65
2023/04/03 02:13:26;;;;;;;16.25;2.47;;;0.40;99.90;;;;;;5067331;28;20461;-65
2023/04/03 02:15:51;;;;;;;6.60;1.90;;;0.30;99.90;;;;;;5067229;28;20181;-64
2023/04/03 02:18:17;;;;;;;8.10;2.17;;;0.30;99.90;;;;;;5087238;28;20366;-65
2023/04/03 02:20:43;;;;;;;6.65;1.73;;;0.30;99.90;;;;;;5052719;28;20049;-64
2023/04/03 02:23:10;;;;;;;14.60;2.20;;;0.30;99.90;;;;;;5066617;28;20616;-64
2023/04/03 02:25:35;;;;;;;7.80;2.15;;;0.30;99.90;;;;;;5068245;28;20044;-64
2023/04/03 02:28:01;;;;;;;12.05;2.40;;;0.30;99.90;;;;;;5066977;28;20039;-64
2023/04/03 02:30:27;;;;;;;8.98;2.58;;;0.30;99.90;;;;;;5066605;28;20052;-64
2023/04/03 02:32:53;;;;;;;9.00;2.33;;;0.30;99.90;;;;;;5082946;28;20048;-65
2023/04/03 02:35:19;;;;;;;10.50;2.22;;;0.30;99.90;;;;;;5074264;28;20041;-65
2023/04/03 02:37:45;;;;;;;8.60;2.53;;;0.30;99.90;;;;;;5066893;28;20383;-65
2023/04/03 02:40:11;;;;;;;11.90;2.50;;;0.30;99.90;;;;;;5066843;28;20048;-65
2023/04/03 02:42:37;;;;;;;6.93;2.30;;;0.30;99.90;;;;;;5066789;28;20246;-65
2023/04/03 02:45:03;;;;;;;9.55;2.22;;;0.30;99.90;;;;;;5067996;28;20039;-65
2023/04/03 02:47:29;;;;;;;9.73;2.20;;;0.20;99.90;;;;;;5049988;28;20135;-65
2023/04/03 02:49:54;;;;;;;8.23;2.17;;;0.20;99.90;;;;;;5066129;28;20128;-65
2023/04/03 02:52:21;;;;;;;12.02;2.50;;;0.10;99.90;;;;;;5066402;28;20468;-64
2023/04/03 02:54:47;;;;;;;10.65;2.63;;;0.10;99.90;;;;;;5049814;28;20596;-66
2023/04/03 02:57:13;;;;;;;9.93;3.13;;;0.00;99.90;;;;;;5067036;28;20036;-65
2023/04/03 02:59:40;;;;;;;11.30;2.25;;;0.00;99.90;;;;;;5066323;28;20065;-65
2023/04/03 03:02:10;;;;;;;8.25;2.20;;;0.00;99.90;;;;;;5066398;28;20048;-65
2023/04/03 03:04:36;;;;;;;10.13;2.50;;;-0.10;99.90;;;;;;5066220;28;20190;-65
2023/04/03 03:07:02;;;;;;;9.18;2.33;;;-0.10;99.90;;;;;;5066175;28;20457;-65
2023/04/03 03:09:29;;;;;;;9.55;2.83;;;-0.10;99.90;;;;;;5067259;28;20044;-65
2023/04/03 03:11:55;;;;;;;12.00;2.55;;;-0.10;99.90;;;;;;5049417;28;20047;-64
2023/04/03 03:14:21;;;;;;;11.27;2.28;;;-0.20;99.90;;;;;;5067581;28;20076;-65
2023/04/03 03:16:47;;;;;;;10.93;2.50;;;-0.20;99.90;;;;;;5048895;28;20130;-64
2023/04/03 03:19:13;;;;;;;10.55;2.45;;;-0.20;99.90;;;;;;5065172;28;20032;-65
2023/04/03 03:21:39;;;;;;;10.90;2.63;;;-0.20;99.90;;;;;;5065563;28;20051;-65
2023/04/03 03:24:05;;;;;;;8.93;2.25;;;-0.20;99.90;;;;;;5066216;28;20492;-65
2023/04/03 03:26:31;;;;;;;8.57;2.20;;;-0.30;99.90;;;;;;5065988;28;20388;-65
2023/04/03 03:28:56;;;;;;;11.88;3.13;;;-0.30;99.90;;;;;;5065619;28;20044;-64
2023/04/03 03:31:22;;;;;;;10.48;2.60;;;-0.40;99.90;;;;;;5065951;28;20690;-64
2023/04/03 03:33:48;;;;;;;10.73;2.58;;;-0.40;99.90;;;;;;5082422;28;20443;-66
2023/04/03 03:36:14;;;;;;;10.00;2.60;;;-0.40;99.90;;;;;;5065342;28;20436;-65
2023/04/03 03:38:40;;;;;;;11.77;2.90;;;-0.40;99.90;;;;;;5065645;28;20353;-65
2023/04/03 03:41:06;;;;;;;10.88;3.03;;;-0.30;99.90;;;;;;5065110;28;20553;-66
2023/04/03 03:43:31;;;;;;;12.93;3.13;;;-0.30;99.90;;;;;;5049152;28;20040;-65
2023/04/03 03:45:57;;;;;;;10.18;2.60;;;-0.30;99.90;;;;;;5065510;28;20028;-64
2023/04/03 03:48:23;;;;;;;10.27;2.50;;;-0.30;99.90;;;;;;5065382;28;20602;-64
2023/04/03 03:50:50;;;;;;;11.27;2.53;;;-0.30;99.90;;;;;;5081792;28;20040;-65
2023/04/03 03:53:15;;;;;;;8.75;3.13;;;-0.20;99.90;;;;;;5078623;28;20075;-64
2023/04/03 03:55:41;;;;;;;10.20;2.80;;;-0.20;99.90;;;;;;5065189;28;20040;-64
2023/04/03 03:58:07;;;;;;;12.88;2.88;;;-0.20;99.90;;;;;;5066833;28;20495;-64
2023/04/03 04:00:33;;;;;;;10.38;3.20;;;-0.20;99.90;;;;;;5066470;28;20538;-64
2023/04/03 04:02:59;;;;;;;8.43;2.58;;;-0.20;99.90;;;;;;5098557;28;20035;-64
2023/04/03 04:05:24;;;;;;;15.10;3.40;;;-0.30;99.90;;;;;;5054195;28;20048;-65
2023/04/03 04:07:50;;;;;;;8.95;3.10;;;-0.20;99.90;;;;;;5064884;28;20037;-65
2023/04/03 04:10:16;;;;;;;11.60;2.80;;;-0.20;99.90;;;;;;5064923;28;20071;-66
2023/04/03 04:12:42;;;;;;;9.75;2.55;;;-0.20;99.90;;;;;;5047940;28;20036;-65
2023/04/03 04:15:08;;;;;;;10.15;2.75;;;-0.30;99.90;;;;;;5064929;28;20052;-65
2023/04/03 04:17:35;;;;;;;13.70;3.20;;;-0.30;99.90;;;;;;5048074;28;20048;-65
2023/04/03 04:20:02;;;;;;;12.40;3.58;;;-0.30;99.90;;;;;;5047584;28;20043;-65
2023/04/03 04:22:28;;;;;;;12.35;3.20;;;-0.30;99.90;;;;;;5065062;28;20507;-65
2023/04/03 04:24:54;;;;;;;12.73;3.28;;;-0.30;99.90;;;;;;5064245;28;20044;-65
2023/04/03 04:27:19;;;;;;;10.60;3.00;;;-0.40;99.90;;;;;;5067515;28;20457;-64
2023/04/03 04:29:45;;;;;;;11.68;3.10;;;-0.40;99.90;;;;;;5064414;28;20048;-64
2023/04/03 04:32:11;;;;;;;13.48;3.05;;;-0.40;99.90;;;;;;5081673;28;20075;-65
2023/04/03 04:34:37;;;;;;;11.90;3.15;;;-0.40;99.90;;;;;;5064571;28;20044;-65
2023/04/03 04:37:02;;;;;;;12.38;3.40;;;-0.50;99.90;;;;;;5064697;28;20102;-64
2023/04/03 04:39:28;;;;;;;11.82;3.97;;;-0.50;99.90;;;;;;5082054;28;20039;-65
2023/04/03 04:41:54;;;;;;;12.63;3.20;;;-0.50;99.90;;;;;;5084459;28;20093;-64
2023/04/03 04:44:20;;;;;;;11.68;3.00;;;-0.50;99.90;;;;;;5065944;28;20040;-64
2023/04/03 04:46:46;;;;;;;16.35;3.58;;;-0.50;99.90;;;;;;5047467;28;20037;-65
2023/04/03 04:49:11;;;;;;;9.23;3.20;;;-0.60;99.90;;;;;;5066974;28;20051;-65
2023/04/03 04:51:37;;;;;;;15.23;3.65;;;-0.60;99.90;;;;;;5084274;28;20040;-65
2023/04/03 04:54:03;;;;;;;12.20;3.53;;;-0.60;99.90;;;;;;5067878;28;20130;-65
2023/04/03 04:56:29;;;;;;;13.70;4.00;;;-0.60;99.90;;;;;;5084204;28;20789;-64
2023/04/03 04:58:54;;;;;;;12.75;3.50;;;-0.60;99.90;;;;;;5069285;28;20135;-64
2023/04/03 05:01:20;;;;;;;13.77;4.00;;;-0.70;99.90;;;;;;5047207;28;20045;-64
2023/04/03 05:03:47;;;;;;;12.50;4.15;;;-0.60;99.90;;;;;;5065343;28;20131;-65
2023/04/03 05:06:13;;;;;;;12.63;3.80;;;-0.70;99.90;;;;;;5067256;28;20581;-65
2023/04/03 05:08:39;;;;;;;14.63;4.13;;;-0.70;99.90;;;;;;5084354;28;20075;-65
2023/04/03 05:11:05;;;;;;;14.45;4.70;;;-0.70;99.90;;;;;;5067337;28;20043;-65
2023/04/03 05:13:31;;;;;;;15.30;4.10;;;-0.70;99.90;;;;;;5067501;28;20063;-65
2023/04/03 05:15:57;;;;;;;18.95;4.07;;;-0.60;99.90;;;;;;5047343;28;20131;-65
2023/04/03 05:18:22;;;;;;;16.67;4.13;;;-0.60;99.90;;;;;;5064036;28;20139;-65
2023/04/03 05:20:50;;;;;;;15.57;4.25;;;-0.50;99.90;;;;;;5047091;28;20036;-65
2023/04/03 05:23:16;;;;;;;16.67;4.20;;;-0.50;99.90;;;;;;5064169;28;20098;-65
2023/04/03 05:25:43;;;;;;;15.63;3.97;;;-0.40;99.90;;;;;;5063474;28;20052;-65
2023/04/03 05:28:09;;;;;;;17.90;4.00;;;-0.40;99.90;;;;;;5052565;28;20047;-65
2023/04/03 05:30:35;;;;;;;11.80;3.95;;;-0.30;99.90;;;;;;5083854;28;20047;-64
2023/04/03 05:33:02;;;;;;;9.45;3.70;;;-0.30;99.90;;;;;;5062592;28;20070;-65
2023/04/03 05:35:27;;;;;;;12.40;3.42;;;-0.30;99.90;;;;;;5052696;28;20561;-64
2023/04/03 05:37:53;;;;;;;12.15;3.60;;;-0.20;99.90;;;;;;5063952;28;20052;-66
2023/04/03 05:40:19;;;;;;;11.30;3.17;;;-0.20;99.90;;;;;;5072511;28;20036;-65
2023/04/03 05:42:45;;;;;;;13.50;4.00;;;-0.10;99.90;;;;;;5051041;28;20595;-65
2023/04/03 05:45:11;;;;;;;12.82;3.83;;;0.00;99.90;;;;;;5051117;28;20040;-64
2023/04/03 05:47:36;;;;;;;13.52;3.80;;;0.10;99.90;;;;;;5068234;28;20052;-65
2023/04/03 05:50:03;;;;;;;11.45;3.22;;;0.20;99.90;;;;;;5076834;28;20127;-65
2023/04/03 05:52:36;;;;;;;12.80;4.25;;;0.20;99.90;;;;;;5067407;28;20040;-65
2023/04/03 05:55:02;;;;;;;14.95;3.50;;;0.30;99.90;;;;;;5059406;28;20097;-65
2023/04/03 05:57:28;;;;;;;17.88;4.43;;;0.40;99.90;;;;;;5084721;28;20028;-66
2023/04/03 05:59:54;;;;;;;14.18;3.70;;;0.40;99.90;;;;;;5083954;28;20068;-64
2023/04/03 06:02:23;;;;;;;13.32;3.53;;;0.50;99.90;;;;;;5050670;28;20083;-65
2023/04/03 06:04:49;;;;;;;11.32;3.10;;;0.60;99.90;;;;;;5076243;28;20039;-65
2023/04/03 06:07:19;;;;;;;13.25;3.55;;;1.20;99.90;;;;;;5068480;28;20039;-65
2023/04/03 06:09:45;;;;;;;13.73;3.85;;;1.70;99.90;;;;;;5069662;28;20066;-65
2023/04/03 06:12:11;;;;;;;14.95;3.30;;;2.30;99.90;;;;;;5082864;28;20037;-64
2023/04/03 06:14:37;;;;;;;9.30;3.00;;;2.50;99.90;;;;;;5051093;28;20102;-65
2023/04/03 06:17:04;;;;;;;11.32;3.28;;;2.90;99.90;;;;;;5074351;28;20495;-64
2023/04/03 06:19:30;;;;;;;18.10;3.97;;;3.20;99.90;;;;;;5068405;28;20045;-65
2023/04/03 06:21:56;;;;;;;14.00;3.60;;;3.60;99.90;;;;;;5067015;28;20044;-64
2023/04/03 06:24:23;;;;;;;11.13;3.42;;;3.90;99.90;;;;;;5067446;28;20036;-64
2023/04/03 06:26:51;;;;;;;13.45;3.60;;;4.10;99.90;;;;;;5066513;28;20044;-64
2023/04/03 06:29:17;;;;;;;11.93;2.70;;;4.30;99.90;;;;;;5084796;28;20111;-65
2023/04/03 06:31:44;;;;;;;12.23;3.58;;;4.40;99.90;;;;;;5063884;28;20207;-65
2023/04/03 06:34:11;;;;;;;10.40;3.13;;;4.40;99.90;;;;;;5068852;28;20044;-65
2023/04/03 06:36:37;;;;;;;9.38;3.20;;;4.30;99.90;;;;;;5069893;28;20109;-65
2023/04/03 06:39:03;;;;;;;14.15;3.10;;;4.40;99.90;;;;;;5087387;28;20468;-65
2023/04/03 06:41:29;;;;;;;13.07;3.03;;;4.00;99.90;;;;;;5053787;28;20487;-65
2023/04/03 06:43:57;;;;;;;14.43;3.53;;;3.90;99.90;;;;;;5079964;28;20043;-65
2023/04/03 06:46:23;;;;;;;12.95;3.53;;;3.70;99.90;;;;;;5066573;28;20040;-64
2023/04/03 06:48:50;;;;;;;11.77;3.13;;;3.30;99.90;;;;;;5066398;28;20063;-64
2023/04/03 06:51:27;;;;;;;9.90;3.35;;;2.90;99.90;;;;;;5086102;28;20036;-65
2023/04/03 06:53:55;;;;;;;11.02;3.22;;;2.70;99.90;;;;;;5070033;28;20036;-64
2023/04/03 06:56:22;;;;;;;10.25;3.78;;;2.60;99.90;;;;;;5074968;28;20411;-65
2023/04/03 06:58:48;;;;;;;13.07;3.63;;;2.60;99.90;;;;;;5069177;28;20056;-65
2023/04/03 07:01:15;;;;;;;9.95;3.50;;;2.70;99.90;;;;;;5049679;28;20037;-66
2023/04/03 07:03:42;;;;;;;9.80;3.33;;;2.80;99.90;;;;;;5066583;28;20515;-65
2023/04/03 07:06:11;;;;;;;11.80;3.35;;;3.00;99.90;;;;;;5049569;28;20068;-66
2023/04/03 07:08:37;;;;;;;10.73;3.38;;;3.10;99.90;;;;;;5066728;28;20086;-66
2023/04/03 07:11:03;;;;;;;11.23;3.38;;;3.10;99.90;;;;;;5068026;28;20110;-66
2023/04/03 07:13:30;;;;;;;10.32;2.75;;;3.20;99.90;;;;;;5079727;28;20050;-65
2023/04/03 07:15:56;;;;;;;11.88;3.67;;;3.20;99.90;;;;;;5086058;28;20114;-65
2023/04/03 07:18:23;;;;;;;10.07;3.47;;;3.30;99.90;;;;;;5068607;28;20028;-65
2023/04/03 07:20:49;;;;;;;13.00;3.45;;;3.60;99.90;;;;;;5071740;28;20040;-65
2023/04/03 07:23:14;;;;;;;11.65;3.35;;;3.90;99.90;;;;;;5074744;28;20392;-65
2023/04/03 07:25:48;;;;;;;9.82;2.95;;;4.30;99.90;;;;;;5066337;28;20043;-65
2023/04/03 07:28:15;;;;;;;6.82;2.67;;;4.80;99.90;;;;;;5073427;28;20036;-65
2023/04/03 07:30:54;;;;;;;10.00;2.50;;;5.10;99.90;;;;;;5073249;28;20040;-65
2023/04/03 07:33:22;;;;;;;11.38;2.78;;;5.20;99.90;;;;;;5071966;28;20043;-65
2023/04/03 07:35:48;;;;;;;11.55;3.40;;;5.40;99.90;;;;;;5053912;28;20040;-66
2023/04/03 07:38:14;;;;;;;10.98;3.38;;;5.80;99.90;;;;;;5074185;28;20050;-65
2023/04/03 07:40:46;;;;;;;9.73;2.60;;;6.00;99.90;;;;;;5072284;28;20085;-65
2023/04/03 07:43:12;;;;;;;7.85;2.22;;;6.40;99.90;;;;;;5074284;28;20462;-66
2023/04/03 07:45:38;;;;;;;10.20;3.22;;;6.40;99.90;;;;;;5068417;28;20127;-66
2023/04/03 07:48:04;;;;;;;7.55;2.55;;;6.60;99.90;;;;;;5066794;28;20050;-67
2023/04/03 07:50:32;;;;;;;7.35;2.40;;;6.70;99.70;;;;;;5072732;28;20048;-65
2023/04/03 07:52:57;;;;;;;11.27;2.67;;;6.70;99.50;;;;;;5076743;28;20714;-66
2023/04/03 07:55:24;;;;;;;10.60;2.70;;;6.70;97.90;;;;;;5084327;28;20125;-65
2023/04/03 07:57:50;;;;;;;10.45;2.75;;;6.70;97.70;;;;;;5078142;28;20093;-66
2023/04/03 08:00:17;;;;;;;9.30;2.20;;;6.90;98.90;;;;;;5048456;28;20052;-66
2023/04/03 08:02:44;;;;;;;8.15;2.58;;;7.10;98.20;;;;;;5065067;28;20037;-65
2023/04/03 08:05:13;;;;;;;10.20;2.42;;;7.40;98.00;;;;;;5048879;28;20416;-66
2023/04/03 08:07:38;;;;;;;9.32;2.30;;;7.70;96.30;;;;;;5072047;28;20035;-65
2023/04/03 08:10:05;;;;;;;9.35;2.45;;;7.80;95.10;;;;;;5105819;28;20059;-66
2023/04/03 08:12:31;;;;;;;7.75;2.63;;;8.10;95.20;;;;;;5070032;28;20044;-65
2023/04/03 08:14:59;;;;;;;10.30;2.13;;;8.40;94.70;;;;;;5084693;28;20052;-67
2023/04/03 08:17:26;;;;;;;9.00;2.17;;;8.50;93.40;;;;;;5083756;28;20158;-64
2023/04/03 08:19:51;;;;;;;7.30;2.10;;;8.30;92.70;;;;;;5066862;28;20487;-66
2023/04/03 08:22:17;;;;;;;8.45;1.95;;;8.10;93.50;;;;;;5084115;28;20249;-66
2023/04/03 08:24:43;;;;;;;7.25;2.08;;;8.00;93.60;;;;;;5083442;28;20483;-65
2023/04/03 08:27:09;;;;;;;9.48;2.40;;;7.70;93.70;;;;;;5067809;28;20043;-65
2023/04/03 08:29:37;;;;;;;7.22;2.08;;;7.40;94.40;;;;;;5080985;28;20399;-66
2023/04/03 08:32:04;;;;;;;7.60;2.10;;;7.20;93.90;;;;;;5071426;28;20036;-67
2023/04/03 08:34:34;;;;;;;7.75;2.50;;;7.20;94.20;;;;;;5063946;28;20062;-65
2023/04/03 08:37:00;;;;;;;10.25;2.25;;;7.10;96.30;;;;;;5084175;28;20086;-68
2023/04/03 08:39:30;;;;;;;11.75;2.20;;;6.90;95.90;;;;;;5067952;28;20535;-65
2023/04/03 08:42:01;;;;;;;8.10;2.10;;;6.80;96.50;;;;;;5066637;28;20040;-65
2023/04/03 08:44:55;;;;;;;8.00;2.20;;;6.80;96.50;;;;;;5082145;28;20424;-67
2023/04/03 08:48:09;;;;;;;8.75;2.22;;;7.30;96.40;;;;;;5065467;28;20447;-64
2023/04/03 08:50:41;;;;;;;8.45;2.38;;;7.50;93.70;;;;;;5050710;28;20052;-65
2023/04/03 08:53:32;;;;;;;6.00;2.30;;;7.80;95.30;;;;;;5047568;28;20048;-65
2023/04/03 08:56:00;;;;;;;8.52;2.10;;;8.10;93.00;;;;;;5063942;28;20055;-64
2023/04/03 08:58:32;;;;;;;7.93;2.33;;;8.30;93.30;;;;;;5049641;28;20492;-64
2023/04/03 09:01:03;;;;;;;8.73;2.15;;;8.00;92.00;;;;;;5074877;28;20518;-64
2023/04/03 09:03:31;;;;;;;7.35;2.28;;;7.80;93.50;;;;;;5083189;28;20039;-64
2023/04/03 09:06:02;;;;;;;8.10;2.50;;;7.70;93.60;;;;;;5082250;28;20036;-63
2023/04/03 09:08:31;;;;;;;9.73;2.67;;;7.60;93.90;;;;;;5067759;28;20402;-64
2023/04/03 09:11:32;;;;;;;8.50;2.03;;;7.60;95.50;;;;;;5049165;28;20051;-63
2023/04/03 09:14:26;;;;;;;6.93;1.90;;;8.00;93.40;;;;;;5047309;28;20044;-64
2023/04/03 09:16:59;;;;;;;7.10;1.80;;;8.20;90.50;;;;;;5047077;28;20499;-64
2023/04/03 09:19:33;;;;;;;5.22;1.65;;;8.10;91.70;;;;;;5046792;28;20052;-66
2023/04/03 09:22:33;;;;;;;6.47;1.70;;;8.20;92.70;;;;;;5047960;28;20079;-63
2023/04/03 09:25:07;;;;;;;7.63;2.08;;;8.20;84.00;;;;;;5040186;28;20112;-67
2023/04/03 09:27:33;;;;;;;11.50;2.00;;;7.90;87.90;;;;;;5081356;28;20097;-64
2023/04/03 09:29:59;;;;;;;5.70;1.90;;;7.70;91.20;;;;;;5084356;28;20076;-65
2023/04/03 09:32:30;;;;;;;6.00;1.80;;;7.40;91.40;;;;;;5065526;28;20055;-67
2023/04/03 09:35:03;;;;;;;5.97;1.80;;;7.30;91.20;;;;;;5065863;28;20032;-65
2023/04/03 09:37:45;;;;;;;7.28;1.95;;;7.20;91.70;;;;;;5066785;28;20127;-65
2023/04/03 09:40:26;;;;;;;5.25;1.45;;;7.10;93.60;;;;;;5065204;28;20047;-66
2023/04/03 09:42:57;;;;;;;6.07;1.80;;;7.40;91.40;;;;;;5079436;28;20048;-65
2023/04/03 09:45:32;;;;;;;9.07;1.65;;;7.60;90.70;;;;;;5049197;28;20373;-64
2023/04/03 09:48:13;;;;;;;6.18;1.75;;;8.00;87.20;;;;;;5064808;28;20048;-64
2023/04/03 09:50:56;;;;;;;6.07;1.70;;;8.60;85.40;;;;;;5051966;28;20052;-65
2023/04/03 09:53:40;;;;;;;7.00;1.92;;;9.30;83.50;;;;;;5047558;28;20129;-66
2023/04/03 09:56:15;;;;;;;9.27;2.13;;;9.80;77.50;;;;;;5063519;28;20044;-65
2023/04/03 09:59:06;;;;;;;6.05;1.58;;;9.90;71.60;;;;;;5065122;28;20139;-65
2023/04/03 10:01:35;;;;;;;7.03;1.85;;;10.20;72.40;;;;;;5038176;28;20055;-65
2023/04/03 10:04:19;;;;;;;7.22;1.60;;;10.10;69.90;;;;;;5063376;28;20044;-64
2023/04/03 10:06:49;;;;;;;5.90;2.35;;;9.90;67.60;;;;;;5063744;28;20447;-63
2023/04/03 10:09:21;;;;;;;4.88;1.75;;;9.60;72.90;;;;;;5063848;28;20041;-64
2023/04/03 10:12:12;;;;;;;8.57;1.80;;;9.70;71.40;;;;;;5064440;28;20083;-67
2023/04/03 10:14:40;;;;;;;5.45;1.60;;;10.00;74.10;;;;;;5064742;28;20165;-64
2023/04/03 10:17:14;;;;;;;5.00;1.60;;;10.60;70.40;;;;;;5065025;28;20621;-67
2023/04/03 10:20:02;;;;;;;3.78;1.13;;;10.90;66.60;;;;;;5063140;28;20399;-66
2023/04/03 10:23:05;;;;;;;5.93;1.42;;;11.00;52.70;;;;;;5046776;28;20398;-64
2023/04/03 10:25:36;;;;;;;5.30;1.30;;;10.80;50.30;;;;;;5064830;28;20402;-66
2023/04/03 10:28:22;;;;;;;3.13;1.10;;;10.70;49.80;;;;;;5073150;28;20046;-69
2023/04/03 10:31:06;;;;;;;5.68;1.33;;;10.60;47.30;;;;;;5070073;28;20056;-68
2023/04/03 10:33:55;;;;;;;4.35;1.35;;;10.30;46.20;;;;;;5086861;28;20036;-66
2023/04/03 10:36:33;;;;;;;4.20;1.10;;;10.20;44.80;;;;;;5050725;28;20120;-66
2023/04/03 10:39:51;;;;;;;4.35;1.02;;;10.30;48.70;;;;;;5066896;28;20141;-65
2023/04/03 10:42:28;;;;;;;4.30;1.20;;;10.70;51.40;;;;;;5063462;28;20133;-67
2023/04/03 10:45:14;;;;;;;4.95;1.15;;;10.50;49.80;;;;;;5067104;28;20040;-66
2023/04/03 10:47:45;;;;;;;3.97;1.13;;;10.50;46.60;;;;;;5050746;28;20037;-67
2023/04/03 10:50:50;;;;;;;4.93;1.27;;;10.20;47.70;;;;;;5056951;28;20113;-65
2023/04/03 10:53:44;;;;;;;5.88;1.27;;;9.90;48.10;;;;;;5017192;28;20098;-65
2023/04/03 10:56:19;;;;;;;4.83;1.20;;;10.10;48.40;;;;;;5067541;28;20040;-64
2023/04/03 10:58:50;;;;;;;5.15;1.30;;;10.40;50.60;;;;;;5067756;28;20149;-66
2023/04/03 11:01:20;;;;;;;5.55;1.33;;;10.30;50.20;;;;;;5083681;28;20079;-65
2023/04/03 11:03:52;;;;;;;4.47;1.33;;;10.00;49.20;;;;;;5067324;28;20393;-68
2023/04/03 11:06:23;;;;;;;5.65;1.58;;;9.70;51.10;;;;;;5082083;28;20119;-66
2023/04/03 11:09:05;;;;;;;4.82;1.55;;;9.20;48.90;;;;;;5083615;28;20048;-65
2023/04/03 11:11:35;;;;;;;4.65;1.10;;;8.90;49.00;;;;;;5064411;28;20133;-68
2023/04/03 11:14:02;;;;;;;2.92;1.00;;;8.80;49.70;;;;;;5056302;28;20037;-65
2023/04/03 11:16:36;;;;;;;4.32;1.17;;;8.80;48.80;;;;;;5050857;28;20119;-65
2023/04/03 11:19:21;;;;;;;4.15;1.20;;;9.00;50.20;;;;;;5085702;28;20071;-66
2023/04/03 11:22:03;;;;;;;4.80;1.35;;;9.40;49.60;;;;;;5049401;28;20044;-66
2023/04/03 11:24:33;;;;;;;6.78;1.48;;;9.70;48.30;;;;;;5066964;28;20511;-66
2023/04/03 11:27:03;;;;;;;4.20;1.33;;;10.10;46.60;;;;;;5049710;28;20109;-67
2023/04/03 11:29:39;;;;;;;4.88;1.58;;;10.60;45.40;;;;;;5049195;28;20048;-66
2023/04/03 11:32:23;;;;;;;5.78;1.40;;;11.10;45.50;;;;;;5049696;28;20036;-67
2023/04/03 11:34:53;;;;;;;5.10;1.50;;;10.70;45.50;;;;;;5065681;28;20048;-65
2023/04/03 11:37:31;;;;;;;6.07;1.10;;;10.40;48.00;;;;;;5065639;28;20080;-67
2023/04/03 11:40:22;;;;;;;4.60;1.23;;;10.40;48.90;;;;;;5065129;28;20563;-70
2023/04/03 11:43:18;;;;;;;6.85;1.63;;;10.30;50.00;;;;;;5066879;28;20559;-66
2023/04/03 11:45:55;;;;;;;4.63;1.30;;;10.40;49.40;;;;;;5067073;28;20044;-66
2023/04/03 11:48:28;;;;;;;5.38;1.50;;;10.20;46.00;;;;;;5067249;28;20240;-67
2023/04/03 11:50:55;;;;;;;7.82;1.63;;;10.00;44.00;;;;;;5048630;28;20063;-69
2023/04/03 11:53:36;;;;;;;4.10;1.17;;;9.90;46.20;;;;;;5049467;28;20151;-65
2023/04/03 11:56:06;;;;;;;5.28;1.42;;;9.70;45.20;;;;;;5066339;28;20048;-65
2023/04/03 11:58:36;;;;;;;4.78;1.48;;;9.60;49.00;;;;;;5065358;28;20321;-66
2023/04/03 12:01:03;;;;;;;6.82;1.40;;;9.80;50.20;;;;;;5065355;28;20055;-65
2023/04/03 12:03:50;;;;;;;4.95;1.30;;;9.60;46.70;;;;;;5065467;28;20052;-66
2023/04/03 12:06:18;;;;;;;4.65;1.20;;;9.60;46.40;;;;;;5056576;28;20048;-66
2023/04/03 12:08:47;;;;;;;6.35;1.42;;;9.70;48.70;;;;;;5068839;28;20035;-64
2023/04/03 12:11:16;;;;;;;4.25;1.17;;;9.70;47.40;;;;;;5081685;28;20051;-68
2023/04/03 12:13:56;;;;;;;5.40;1.52;;;9.70;49.00;;;;;;5075465;28;20567;-66
2023/04/03 12:16:26;;;;;;;4.90;1.45;;;9.70;48.50;;;;;;5084272;28;20313;-66
2023/04/03 12:18:52;;;;;;;6.43;1.80;;;9.90;48.50;;;;;;5065336;28;20037;-69
2023/04/03 12:21:43;;;;;;;4.63;1.30;;;10.10;48.10;;;;;;5066118;28;20048;-64
2023/04/03 12:24:08;;;;;;;5.55;1.50;;;10.30;49.30;;;;;;5065141;28;20036;-65
2023/04/03 12:26:51;;;;;;;6.03;1.48;;;10.10;48.50;;;;;;5064580;28;20051;-69
2023/04/03 12:29:28;;;;;;;8.10;1.63;;;10.00;51.50;;;;;;5064841;28;20113;-66
2023/04/03 12:32:07;;;;;;;4.03;1.30;;;10.00;46.60;;;;;;5065580;28;20047;-67
2023/04/03 12:34:41;;;;;;;6.47;1.77;;;9.90;45.30;;;;;;5080545;28;20089;-66
2023/04/03 12:37:17;;;;;;;6.03;1.73;;;9.90;47.10;;;;;;5048960;28;20131;-65
2023/04/03 12:39:55;;;;;;;6.78;1.65;;;9.90;50.10;;;;;;5061590;28;20115;-67
2023/04/03 12:42:38;;;;;;;5.15;1.45;;;10.00;48.20;;;;;;5072569;28;20202;-66
2023/04/03 12:45:21;;;;;;;4.03;1.40;;;10.40;48.90;;;;;;5076957;28;20042;-64
2023/04/03 12:47:50;;;;;;;6.70;1.50;;;10.70;45.70;;;;;;5055514;28;20448;-69
2023/04/03 12:50:29;;;;;;;5.93;1.65;;;11.00;47.60;;;;;;5063652;28;20054;-66
2023/04/03 12:53:19;;;;;;;4.50;1.50;;;11.00;50.50;;;;;;5065783;28;20119;-65
2023/04/03 12:55:44;;;;;;;6.38;1.38;;;11.00;50.40;;;;;;5074121;28;20483;-65
2023/04/03 12:58:26;;;;;;;6.32;1.30;;;11.10;50.50;;;;;;5070691;28;20064;-67
2023/04/03 13:01:14;;;;;;;5.93;1.52;;;11.10;45.90;;;;;;5054801;28;20453;-64
2023/04/03 13:03:44;;;;;;;7.45;1.73;;;11.50;48.30;;;;;;5078895;28;20039;-66
2023/04/03 13:06:26;;;;;;;5.97;1.60;;;11.40;46.40;;;;;;5063343;28;20266;-67
2023/04/03 13:08:57;;;;;;;4.65;1.33;;;10.60;45.00;;;;;;5079556;28;20054;-68